Time;durP1;ratioP1;P1;durP2;ratioP2;P2;SDS_P1;SDS_P2;PMS_P1;PMS_P2;Temp;Humidity;BMP_temperature;BMP_pressure;BME280_temperature;BME280_humidity;BME280_pressure;Samples;Min_cycle;Max_cycle;Signal;HPM_P1;HPM_P2
2021/11/25 00:00:12;;;;;;;44.00;27.23;;;;;;;6.73;95.39;101462.81;10571237;28;20039;-77
2021/11/25 00:05:13;;;;;;;43.45;28.80;;;;;;;6.64;94.74;101455.69;10569843;28;20043;-76
2021/11/25 00:10:14;;;;;;;53.67;29.40;;;;;;;6.60;94.73;101454.28;10588760;28;20027;-78
2021/11/25 00:15:15;;;;;;;39.22;28.27;;;;;;;6.56;94.49;101455.63;10570280;28;20553;-77
2021/11/25 00:20:16;;;;;;;44.45;26.35;;;;;;;6.44;93.60;101446.09;10588383;28;20030;-76
2021/11/25 00:25:17;;;;;;;40.05;24.67;;;;;;;6.52;94.51;101443.47;10588181;28;20379;-76
2021/11/25 00:30:17;;;;;;;36.90;23.70;;;;;;;6.55;94.42;101440.47;10585718;28;20051;-77
2021/11/25 00:35:18;;;;;;;41.63;25.80;;;;;;;6.56;94.41;101442.16;10567675;28;20457;-76
2021/11/25 00:40:18;;;;;;;41.42;25.33;;;;;;;6.58;94.53;101432.09;10586054;28;20511;-77
2021/11/25 00:45:19;;;;;;;50.22;23.13;;;;;;;6.56;94.59;101431.41;10551763;28;20043;-77
2021/11/25 00:50:20;;;;;;;39.22;26.52;;;;;;;6.62;94.51;101424.53;10585224;28;20111;-77
2021/11/25 00:55:20;;;;;;;57.50;27.58;;;;;;;6.57;94.89;101426.84;10566286;28;20205;-77
2021/11/25 01:00:21;;;;;;;38.38;25.23;;;;;;;6.60;95.21;101430.06;10565923;28;20070;-76
2021/11/25 01:05:22;;;;;;;36.20;25.92;;;;;;;6.65;95.22;101425.06;10566429;28;20028;-77
2021/11/25 01:10:24;;;;;;;40.88;26.58;;;;;;;6.68;95.39;101419.38;10584758;28;20024;-77
2021/11/25 01:15:29;;;;;;;41.03;28.08;;;;;;;6.66;95.64;101407.91;10585259;28;20386;-78
2021/11/25 01:20:30;;;;;;;52.80;29.63;;;;;;;6.66;95.26;101404.38;10583524;28;20483;-76
2021/11/25 01:25:31;;;;;;;41.85;27.30;;;;;;;6.58;94.20;101415.94;10548301;28;20035;-77
2021/11/25 01:30:31;;;;;;;50.63;26.85;;;;;;;6.65;95.25;101419.69;10584618;28;20055;-75
2021/11/25 01:35:31;;;;;;;46.88;28.30;;;;;;;6.59;95.14;101406.03;10549028;28;20092;-77
2021/11/25 01:40:32;;;;;;;50.55;32.20;;;;;;;6.58;95.13;101418.63;10565233;28;20059;-77
2021/11/25 01:45:32;;;;;;;47.70;29.02;;;;;;;6.56;94.87;101406.34;10583200;28;20040;-75
2021/11/25 01:50:33;;;;;;;54.95;33.15;;;;;;;6.49;94.72;101403.44;10585170;28;20028;-77
2021/11/25 01:55:33;;;;;;;55.80;32.70;;;;;;;6.47;94.69;101398.19;10565543;28;20061;-77
2021/11/25 02:00:44;;;;;;;56.90;32.50;;;;;;;6.42;94.01;101391.63;10571737;28;20087;-78
2021/11/25 02:05:45;;;;;;;51.17;32.47;;;;;;;6.39;94.80;101391.94;10584867;28;20442;-76
2021/11/25 02:10:47;;;;;;;60.22;36.50;;;;;;;6.37;94.78;101381.34;10582830;28;20032;-77
2021/11/25 02:15:47;;;;;;;66.53;35.35;;;;;;;6.28;94.85;101379.59;10581869;28;20039;-77
2021/11/25 02:20:53;;;;;;;60.35;37.30;;;;;;;6.31;95.02;101371.19;10563632;28;20035;-76
2021/11/25 02:25:54;;;;;;;68.53;39.50;;;;;;;6.35;94.70;101367.22;10583026;28;20039;-77
2021/11/25 02:30:54;;;;;;;64.10;38.55;;;;;;;6.33;94.92;101358.44;10565163;28;20056;-76
2021/11/25 02:35:55;;;;;;;63.75;36.58;;;;;;;6.32;95.04;101356.78;10565655;28;20102;-77
2021/11/25 02:40:56;;;;;;;67.30;40.08;;;;;;;6.35;94.68;101352.91;10565246;28;20054;-75
2021/11/25 02:46:10;;;;;;;72.70;36.78;;;;;;;6.32;94.88;101350.53;10564423;28;20038;-75
2021/11/25 02:51:22;;;;;;;69.80;40.75;;;;;;;6.28;95.07;101341.94;10567676;28;20027;-75
2021/11/25 02:56:24;;;;;;;74.20;40.92;;;;;;;6.23;94.74;101331.66;10566611;28;20104;-75
2021/11/25 03:01:32;;;;;;;69.07;38.30;;;;;;;6.27;94.70;101341.09;10581899;28;20039;-75
2021/11/25 03:06:33;;;;;;;69.97;37.83;;;;;;;6.29;94.91;101328.34;10565302;28;20031;-74
2021/11/25 03:11:33;;;;;;;61.05;37.75;;;;;;;6.22;95.14;101323.75;10587874;28;20031;-75
2021/11/25 03:16:34;;;;;;;71.50;41.25;;;;;;;6.21;95.43;101332.81;10570845;28;20181;-75
2021/11/25 03:21:34;;;;;;;66.90;39.95;;;;;;;6.15;95.56;101320.84;10570642;28;20076;-75
2021/11/25 03:26:35;;;;;;;59.70;37.15;;;;;;;6.18;95.74;101314.31;10590105;28;20031;-76
2021/11/25 03:31:35;;;;;;;74.15;40.10;;;;;;;6.14;95.88;101310.25;10590280;28;20067;-75
2021/11/25 03:36:36;;;;;;;68.28;39.67;;;;;;;6.15;95.73;101303.88;10589480;28;20035;-75
2021/11/25 03:41:36;;;;;;;78.80;42.55;;;;;;;6.10;95.59;101298.97;10570142;28;20123;-75
2021/11/25 03:46:36;;;;;;;76.10;46.28;;;;;;;6.09;95.17;101299.97;10589363;28;20035;-75
2021/11/25 03:51:37;;;;;;;81.05;43.13;;;;;;;6.05;95.47;101301.28;10569375;28;20411;-75
2021/11/25 03:56:37;;;;;;;72.47;42.22;;;;;;;6.01;95.15;101297.25;10587728;28;20073;-75
2021/11/25 04:01:38;;;;;;;78.15;42.45;;;;;;;5.97;95.44;101294.03;10586976;28;20035;-75
2021/11/25 04:06:38;;;;;;;84.30;44.63;;;;;;;6.01;95.38;101287.31;10587108;28;20069;-74
2021/11/25 04:11:38;;;;;;;95.20;47.92;;;;;;;6.00;94.89;101290.19;10569007;28;20028;-75
2021/11/25 04:16:39;;;;;;;74.47;42.45;;;;;;;5.98;95.07;101273.34;10587623;28;20520;-75
2021/11/25 04:21:39;;;;;;;63.22;39.72;;;;;;;5.98;94.99;101281.41;10587089;28;20051;-74
2021/11/25 04:26:40;;;;;;;90.38;45.92;;;;;;;5.97;94.93;101294.03;10587366;28;20032;-74
2021/11/25 04:37:02;;;;;;;94.30;48.50;;;;;;;5.75;93.44;101283.75;10585925;28;20039;-74
2021/11/25 04:42:02;;;;;;;83.35;44.22;;;;;;;5.63;92.75;101271.56;10586257;28;20040;-74
2021/11/25 04:47:03;;;;;;;76.65;47.42;;;;;;;5.69;94.16;101273.63;10586145;28;20106;-74
2021/11/25 04:52:04;;;;;;;73.68;45.55;;;;;;;5.85;95.17;101267.53;10550325;28;20095;-75
2021/11/25 04:57:05;;;;;;;73.90;44.63;;;;;;;5.94;95.04;101258.56;10585688;28;20024;-75
2021/11/25 05:02:06;;;;;;;78.75;44.20;;;;;;;5.94;95.15;101251.34;10585628;28;20028;-75
2021/11/25 05:07:06;;;;;;;84.38;47.45;;;;;;;5.94;94.74;101256.72;10567947;28;20040;-75
2021/11/25 05:12:07;;;;;;;90.53;46.30;;;;;;;5.93;94.75;101244.25;10584192;28;20475;-74
2021/11/25 05:17:08;;;;;;;75.93;46.33;;;;;;;5.91;94.99;101238.19;10584559;28;20027;-75
2021/11/25 05:22:08;;;;;;;71.95;44.42;;;;;;;5.85;94.26;101235.28;10583919;28;20463;-74
2021/11/25 05:27:09;;;;;;;94.38;45.03;;;;;;;5.66;93.34;101239.84;10583973;28;20454;-76
2021/11/25 05:32:14;;;;;;;89.47;43.78;;;;;;;5.56;93.45;101247.19;10585578;28;20471;-77
2021/11/25 05:37:15;;;;;;;85.20;43.75;;;;;;;5.63;94.15;101252.75;10583434;28;20040;-77
2021/11/25 05:42:17;;;;;;;91.40;45.22;;;;;;;5.75;95.04;101246.97;10565959;28;20076;-78
2021/11/25 05:47:19;;;;;;;82.10;46.85;;;;;;;5.81;95.54;101257.09;10516598;28;20478;-79
2021/11/25 05:52:20;;;;;;;78.85;44.38;;;;;;;5.85;95.59;101263.00;10583219;28;20031;-76
2021/11/25 05:57:21;;;;;;;84.00;47.90;;;;;;;5.92;94.93;101268.59;10584754;28;20051;-76
2021/11/25 06:02:21;;;;;;;81.10;45.40;;;;;;;5.85;94.47;101252.25;10564880;28;20077;-77
2021/11/25 06:07:21;;;;;;;82.30;43.95;;;;;;;5.82;94.26;101258.78;10583373;28;20177;-78
2021/11/25 06:12:22;;;;;;;85.60;45.85;;;;;;;5.85;94.52;101252.25;10582714;28;20459;-77
2021/11/25 06:17:22;;;;;;;84.15;47.33;;;;;;;5.93;94.97;101243.41;10584643;28;20092;-78
2021/11/25 06:22:23;;;;;;;80.32;46.70;;;;;;;6.03;95.56;101241.44;10582604;28;20382;-76
2021/11/25 06:27:23;;;;;;;91.70;44.15;;;;;;;6.05;95.44;101236.75;10547850;28;20035;-77
2021/11/25 06:32:23;;;;;;;82.78;42.17;;;;;;;6.04;94.94;101240.47;10584461;28;20063;-77
2021/11/25 06:37:24;;;;;;;72.50;41.10;;;;;;;6.12;95.13;101236.97;10586097;28;20501;-78
2021/11/25 06:42:24;;;;;;;80.35;45.17;;;;;;;6.21;95.47;101230.63;10584603;28;20027;-77
2021/11/25 06:47:25;;;;;;;78.65;41.88;;;;;;;6.26;95.57;101228.31;10571161;28;20085;-77
2021/11/25 06:52:25;;;;;;;66.00;39.83;;;;;;;6.27;95.81;101228.13;10591185;28;20366;-77
2021/11/25 06:57:25;;;;;;;80.88;45.47;;;;;;;6.33;95.83;101232.03;10591788;28;20039;-78
2021/11/25 07:02:26;;;;;;;88.03;46.92;;;;;;;6.39;95.95;101233.25;10572860;28;20035;-78
2021/11/25 07:07:26;;;;;;;67.38;37.45;;;;;;;6.44;96.12;101225.50;10573606;28;20108;-78
2021/11/25 07:12:27;;;;;;;80.97;40.40;;;;;;;6.52;96.62;101226.38;10590688;28;20027;-77
2021/11/25 07:17:28;;;;;;;80.30;40.30;;;;;;;6.59;96.29;101223.03;10571851;28;20028;-78
2021/11/25 07:22:30;;;;;;;83.45;38.20;;;;;;;6.64;96.34;101221.56;10592015;28;20092;-78
2021/11/25 07:27:30;;;;;;;61.17;38.08;;;;;;;6.70;96.59;101225.41;10573410;28;20389;-78
2021/11/25 07:32:31;;;;;;;62.47;34.65;;;;;;;6.74;96.88;101227.63;10590665;28;20108;-79
2021/11/25 07:37:31;;;;;;;61.83;33.40;;;;;;;6.82;96.83;101232.19;10571459;28;20039;-78
2021/11/25 07:42:32;;;;;;;57.67;32.30;;;;;;;6.90;96.72;101232.22;10589354;28;20032;-78
2021/11/25 07:47:33;;;;;;;44.42;26.88;;;;;;;7.03;96.91;101236.28;10588857;28;20031;-78
2021/11/25 07:52:33;;;;;;;52.38;27.88;;;;;;;7.05;97.12;101229.72;10588358;28;20030;-79
2021/11/25 07:57:34;;;;;;;37.17;21.02;;;;;;;7.12;97.11;101225.34;10570317;28;20043;-78
2021/11/25 08:02:34;;;;;;;27.33;15.68;;;;;;;7.25;97.04;101219.47;10535044;28;20059;-78
2021/11/25 08:07:37;;;;;;;17.08;12.50;;;;;;;7.33;97.07;101219.44;10587105;28;20425;-78
2021/11/25 08:12:37;;;;;;;17.10;8.98;;;;;;;7.45;97.18;101233.44;10569729;28;20027;-77
2021/11/25 08:17:38;;;;;;;7.10;6.10;;;;;;;7.58;96.89;101246.38;10586538;28;20436;-77
2021/11/25 08:22:39;;;;;;;9.32;6.63;;;;;;;7.67;96.86;101257.00;10552818;28;20035;-75
2021/11/25 08:27:40;;;;;;;9.60;4.80;;;;;;;7.74;97.14;101256.31;10586021;28;20028;-74
2021/11/25 08:32:41;;;;;;;3.80;3.45;;;;;;;7.75;96.88;101258.81;10566717;28;20048;-75
2021/11/25 08:37:42;;;;;;;2.80;2.17;;;;;;;7.78;97.29;101250.41;10585912;28;20142;-75
2021/11/25 08:42:43;;;;;;;8.40;4.05;;;;;;;7.80;96.83;101244.84;10567561;28;20070;-75
2021/11/25 08:47:44;;;;;;;6.63;2.90;;;;;;;7.87;96.89;101248.53;10550227;28;20356;-76
2021/11/25 08:52:44;;;;;;;11.85;2.65;;;;;;;8.00;96.82;101235.38;10551385;28;20040;-75
2021/11/25 08:57:45;;;;;;;13.75;3.50;;;;;;;8.16;96.91;101240.72;10567364;28;20080;-76
2021/11/25 09:02:46;;;;;;;10.18;2.03;;;;;;;8.20;96.62;101252.03;10567867;28;20032;-76
2021/11/25 09:07:46;;;;;;;7.50;1.80;;;;;;;8.25;96.83;101254.19;10585118;28;20043;-76
2021/11/25 09:12:48;;;;;;;12.68;3.25;;;;;;;8.26;96.53;101255.84;10585945;28;20114;-76
2021/11/25 09:17:48;;;;;;;8.02;4.38;;;;;;;8.27;96.36;101262.97;10588774;28;20035;-76
2021/11/25 09:22:49;;;;;;;9.85;3.30;;;;;;;8.31;96.62;101261.59;10591002;28;20055;-77
2021/11/25 09:27:49;;;;;;;10.25;3.90;;;;;;;8.32;96.46;101260.56;10588327;28;20035;-76
2021/11/25 09:32:50;;;;;;;8.85;4.43;;;;;;;8.38;95.92;101268.84;10567093;28;20156;-76
2021/11/25 09:37:51;;;;;;;3.33;2.55;;;;;;;8.35;95.35;101268.31;10585110;28;20413;-75
2021/11/25 09:43:02;;;;;;;10.90;2.55;;;;;;;8.29;94.82;101258.22;10567121;28;20418;-76
2021/11/25 09:48:07;;;;;;;5.82;2.65;;;;;;;8.25;93.98;101256.88;10566606;28;20119;-77
2021/11/25 09:53:08;;;;;;;2.42;2.22;;;;;;;8.12;92.41;101257.44;10565349;28;20027;-75
2021/11/25 09:58:12;;;;;;;9.38;2.83;;;;;;;8.82;92.89;101268.31;10564269;28;20478;-76
2021/11/25 10:03:16;;;;;;;2.05;1.92;;;;;;;10.40;94.06;101255.00;10581800;28;20133;-75
2021/11/25 10:08:31;;;;;;;8.45;2.42;;;;;;;11.28;93.74;101261.22;10564669;28;20045;-76
2021/11/25 10:13:38;;;;;;;5.35;2.90;;;;;;;12.32;93.27;101266.88;10583529;28;20032;-76
2021/11/25 10:18:39;;;;;;;33.78;3.35;;;;;;;12.20;93.99;101259.50;10564256;28;20390;-75
2021/11/25 10:23:40;;;;;;;12.10;3.33;;;;;;;12.60;94.15;101270.56;10572555;28;20058;-75
2021/11/25 10:28:42;;;;;;;14.18;2.88;;;;;;;12.63;93.21;101270.97;10572536;28;20027;-75
2021/11/25 10:33:55;;;;;;;7.95;2.17;;;;;;;12.23;94.51;101278.94;10573988;28;20120;-75
2021/11/25 10:39:09;;;;;;;7.68;2.55;;;;;;;11.40;94.78;101283.22;10556925;28;20481;-76
2021/11/25 10:44:18;;;;;;;2.65;2.33;;;;;;;10.57;94.67;101274.56;10591112;28;20348;-75
2021/11/25 10:49:39;;;;;;;6.50;2.10;;;;;;;10.37;94.92;101281.56;10572321;28;20081;-75
2021/11/25 10:54:45;;;;;;;7.82;2.97;;;;;;;10.16;96.00;101279.59;10589514;28;20032;-76
2021/11/25 10:59:48;;;;;;;4.75;2.00;;;;;;;10.01;95.83;101272.28;10590622;28;20059;-75
2021/11/25 11:04:49;;;;;;;13.30;3.22;;;;;;;10.10;96.76;101285.72;10556381;28;20027;-76
2021/11/25 11:09:49;;;;;;;10.13;3.00;;;;;;;10.08;96.83;101285.91;10571549;28;20023;-77
2021/11/25 11:14:55;;;;;;;13.05;3.85;;;;;;;9.86;96.67;101295.78;10589447;28;20542;-76
2021/11/25 11:20:07;;;;;;;10.18;4.05;;;;;;;9.84;96.96;101283.47;10572584;28;20026;-77
2021/11/25 11:25:08;;;;;;;7.40;1.77;;;;;;;9.96;96.45;101282.81;10589507;28;20027;-77
2021/11/25 11:30:09;;;;;;;9.80;3.35;;;;;;;10.01;95.77;101276.84;10553112;28;20052;-77
2021/11/25 11:35:10;;;;;;;3.58;1.98;;;;;;;10.13;96.32;101271.84;10589546;28;20047;-76
2021/11/25 11:40:10;;;;;;;11.32;2.60;;;;;;;10.38;97.42;101269.72;10571520;28;20450;-77
2021/11/25 11:45:11;;;;;;;3.35;1.80;;;;;;;10.48;97.55;101262.16;10589617;28;20359;-77
2021/11/25 11:50:12;;;;;;;6.50;1.75;;;;;;;10.49;96.64;101269.25;10589667;28;20073;-77
2021/11/25 11:55:12;;;;;;;4.78;2.78;;;;;;;10.43;96.34;101254.63;10569319;28;20038;-77
2021/11/25 12:00:18;;;;;;;7.75;2.97;;;;;;;10.31;96.50;101275.06;10587246;28;20100;-78
2021/11/25 12:05:42;;;;;;;7.93;2.78;;;;;;;10.00;96.50;101267.91;10587788;28;20031;-77
2021/11/25 12:10:55;;;;;;;2.65;1.77;;;;;;;9.86;95.43;101252.50;10568379;28;20042;-76
2021/11/25 12:16:17;;;;;;;11.38;2.45;;;;;;;9.82;95.99;101258.44;10587303;28;20040;-76
2021/11/25 12:21:36;;;;;;;3.33;2.70;;;;;;;9.77;95.93;101249.03;10587211;28;20599;-77
2021/11/25 12:27:00;;;;;;;4.07;1.83;;;;;;;9.79;96.12;101235.31;10573009;28;20031;-78
2021/11/25 12:32:30;;;;;;;5.95;2.20;;;;;;;9.90;96.30;101231.34;10587738;28;20118;-78
2021/11/25 12:42:52;;;;;;;5.30;2.50;;;;;;;9.95;96.02;101224.31;10585260;28;20123;-77
2021/11/25 12:48:05;;;;;;;7.57;2.63;;;;;;;9.83;96.77;101236.63;10585403;28;20039;-78
2021/11/25 12:53:13;;;;;;;12.45;2.38;;;;;;;9.78;96.91;101222.81;10568383;28;20036;-77
2021/11/25 12:58:13;;;;;;;5.63;3.08;;;;;;;9.52;96.04;101221.38;10567904;28;20489;-78
2021/11/25 13:03:19;;;;;;;1.88;1.77;;;;;;;9.24;95.24;101212.16;10585632;28;20040;-78
2021/11/25 13:08:33;;;;;;;17.83;4.00;;;;;;;8.94;93.49;101213.91;10568566;28;20081;-77
2021/11/25 13:13:33;;;;;;;9.27;3.67;;;;;;;9.11;92.67;101195.72;10586341;28;20059;-78
2021/11/25 13:19:02;;;;;;;9.82;2.30;;;;;;;9.55;93.68;101193.13;10550203;28;20470;-79
2021/11/25 13:24:04;;;;;;;4.35;2.45;;;;;;;9.65;93.40;101188.28;10584905;28;20039;-78
2021/11/25 13:29:05;;;;;;;2.30;2.05;;;;;;;9.60;93.34;101197.97;10583978;28;20040;-78
2021/11/25 13:34:13;;;;;;;2.15;1.98;;;;;;;10.22;94.95;101189.53;10566600;28;20046;-78
2021/11/25 13:39:29;;;;;;;14.63;3.38;;;;;;;9.97;93.90;101183.56;10583480;28;20054;-78
2021/11/25 13:44:32;;;;;;;12.68;2.38;;;;;;;9.72;91.51;101178.41;10567296;28;20032;-77
2021/11/25 13:49:43;;;;;;;13.02;3.00;;;;;;;9.55;91.75;101187.72;10584364;28;20072;-78
2021/11/25 13:54:43;;;;;;;12.40;3.10;;;;;;;9.46;93.89;101200.47;10585405;28;20379;-78
2021/11/25 13:59:44;;;;;;;6.78;2.65;;;;;;;9.12;92.29;101194.69;10566215;28;20028;-79
2021/11/25 14:04:44;;;;;;;7.45;2.70;;;;;;;8.89;91.45;101195.53;10564975;28;20024;-79
2021/11/25 14:09:45;;;;;;;4.20;2.25;;;;;;;8.37;89.23;101196.13;10549165;28;20034;-78
2021/11/25 14:14:47;;;;;;;10.82;1.92;;;;;;;8.45;89.64;101195.28;10584072;28;20088;-78
2021/11/25 14:19:48;;;;;;;10.80;2.50;;;;;;;8.07;89.79;101184.25;10584909;28;20039;-78
2021/11/25 14:24:50;;;;;;;9.80;2.42;;;;;;;8.12;91.61;101190.81;10585389;28;20441;-78
2021/11/25 14:30:06;;;;;;;30.58;4.00;;;;;;;8.22;93.47;101196.03;10567951;28;20483;-79
2021/11/25 14:35:28;;;;;;;8.25;2.92;;;;;;;8.14;93.98;101206.84;10568211;28;20047;-79
2021/11/25 14:40:30;;;;;;;9.40;3.08;;;;;;;7.94;93.28;101198.31;10554214;28;20093;-79
2021/11/25 14:45:31;;;;;;;9.02;2.90;;;;;;;7.82;91.87;101186.22;10582222;28;20039;-79
2021/11/25 14:50:31;;;;;;;10.40;2.75;;;;;;;7.43;90.25;101192.31;10548041;28;20031;-79
2021/11/25 14:55:32;;;;;;;10.03;2.90;;;;;;;7.12;89.41;101190.34;10583157;28;20506;-78
2021/11/25 15:00:37;;;;;;;22.80;3.97;;;;;;;6.94;88.84;101184.25;10583371;28;20267;-79
2021/11/25 15:05:46;;;;;;;11.35;3.55;;;;;;;6.81;88.86;101194.69;10565297;28;20103;-78
2021/11/25 15:10:53;;;;;;;9.68;4.90;;;;;;;6.67;88.77;101190.78;10571947;28;20028;-79
2021/11/25 15:15:56;;;;;;;9.27;4.05;;;;;;;6.61;89.13;101188.75;10555860;28;20030;-78
2021/11/25 15:20:58;;;;;;;16.98;3.95;;;;;;;6.66;89.93;101181.00;10590267;28;20442;-79
2021/11/25 15:25:59;;;;;;;11.80;3.30;;;;;;;6.62;89.31;101174.28;10572695;28;20063;-78
2021/11/25 15:30:59;;;;;;;18.05;4.78;;;;;;;6.61;89.93;101176.13;10589969;28;20051;-79
2021/11/25 15:36:07;;;;;;;17.42;4.07;;;;;;;6.53;89.42;101176.94;10588864;28;20039;-78
2021/11/25 15:41:08;;;;;;;12.63;4.45;;;;;;;6.49;89.12;101174.75;10572483;28;20126;-78
2021/11/25 15:46:10;;;;;;;20.75;4.82;;;;;;;6.50;89.45;101179.13;10571388;28;20123;-79
2021/11/25 15:51:10;;;;;;;13.35;4.25;;;;;;;6.48;89.30;101191.91;10591280;28;20048;-78
2021/11/25 15:56:11;;;;;;;28.15;3.70;;;;;;;6.52;89.75;101187.88;10574704;28;20031;-78
2021/11/25 16:01:11;;;;;;;14.55;3.72;;;;;;;6.49;89.76;101191.75;10556484;28;20390;-78
2021/11/25 16:06:13;;;;;;;9.52;3.25;;;;;;;6.64;90.84;101180.34;10589706;28;20032;-78
2021/11/25 16:11:14;;;;;;;9.57;3.95;;;;;;;6.96;92.56;101180.41;10590396;28;20089;-78
2021/11/25 16:16:14;;;;;;;17.67;3.60;;;;;;;7.03;91.18;101190.50;10589255;28;20035;-79
2021/11/25 16:21:14;;;;;;;19.67;5.22;;;;;;;6.96;90.36;101190.31;10588550;28;20051;-79
2021/11/25 16:26:15;;;;;;;18.40;4.40;;;;;;;6.80;89.20;101190.31;10588713;28;20036;-78
2021/11/25 16:31:15;;;;;;;11.75;4.05;;;;;;;6.73;90.54;101192.78;10570605;28;20055;-78
2021/11/25 16:36:16;;;;;;;13.95;3.85;;;;;;;6.77;91.02;101188.78;10587861;28;20067;-79
2021/11/25 16:41:16;;;;;;;8.43;3.63;;;;;;;6.77;91.47;101187.94;10586617;28;20070;-78
2021/11/25 16:46:17;;;;;;;8.00;4.60;;;;;;;6.67;90.16;101188.09;10586898;28;20032;-78
2021/11/25 16:51:17;;;;;;;6.28;3.03;;;;;;;6.42;88.65;101179.13;10570098;28;20031;-78
2021/11/25 16:56:18;;;;;;;8.38;3.83;;;;;;;6.14;87.65;101171.28;10588575;28;20035;-78
2021/11/25 17:01:18;;;;;;;8.60;3.55;;;;;;;5.88;87.19;101170.47;10568904;28;20101;-78
2021/11/25 17:06:19;;;;;;;7.40;2.90;;;;;;;5.61;86.72;101175.00;10569056;28;20032;-77
2021/11/25 17:11:19;;;;;;;7.03;2.85;;;;;;;5.40;86.95;101171.84;10570017;28;20118;-78
2021/11/25 17:16:19;;;;;;;2.15;1.92;;;;;;;5.42;89.26;101167.97;10569519;28;20042;-77
2021/11/25 17:21:20;;;;;;;12.38;4.13;;;;;;;5.68;91.47;101165.31;10587382;28;20058;-77
2021/11/25 17:26:21;;;;;;;5.25;2.92;;;;;;;5.83;91.39;101169.06;10586584;28;20429;-76
2021/11/25 17:31:23;;;;;;;7.70;4.00;;;;;;;5.93;90.87;101178.91;10567838;28;20410;-78
2021/11/25 17:36:24;;;;;;;8.00;3.33;;;;;;;6.09;91.52;101167.38;10571495;28;20110;-78
2021/11/25 17:41:25;;;;;;;7.63;3.85;;;;;;;6.18;91.45;101171.78;10588903;28;20139;-77
2021/11/25 17:46:25;;;;;;;10.88;4.05;;;;;;;6.16;90.56;101155.84;10586554;28;20039;-77
2021/11/25 17:51:25;;;;;;;14.02;5.13;;;;;;;6.34;92.18;101157.56;10566831;28;20111;-77
2021/11/25 17:56:26;;;;;;;14.05;4.10;;;;;;;6.50;92.77;101160.28;10568530;28;20512;-79
2021/11/25 18:01:27;;;;;;;7.50;4.03;;;;;;;6.35;91.00;101146.66;10565951;28;20031;-79
2021/11/25 18:06:27;;;;;;;8.90;3.83;;;;;;;6.24;90.06;101144.25;10584429;28;20039;-78
2021/11/25 18:11:31;;;;;;;7.45;2.42;;;;;;;6.16;90.47;101139.69;10568775;28;20081;-77
2021/11/25 18:16:32;;;;;;;4.40;3.08;;;;;;;6.21;90.12;101140.03;10588181;28;20039;-78
2021/11/25 18:21:32;;;;;;;7.38;2.30;;;;;;;6.20;90.12;101130.28;10567501;28;20455;-78
2021/11/25 18:26:33;;;;;;;6.60;2.22;;;;;;;6.27;90.03;101123.25;10587017;28;20114;-77
2021/11/25 18:31:34;;;;;;;5.72;3.03;;;;;;;6.33;91.12;101129.00;10589683;28;20483;-79
2021/11/25 18:36:34;;;;;;;5.47;1.77;;;;;;;6.46;92.55;101132.88;10551388;28;20030;-78
2021/11/25 18:41:34;;;;;;;3.53;1.73;;;;;;;6.60;92.98;101127.84;10555522;28;20114;-78
2021/11/25 18:46:37;;;;;;;11.02;2.95;;;;;;;6.52;91.69;101131.38;10573456;28;20100;-78
2021/11/25 18:51:37;;;;;;;3.22;2.22;;;;;;;6.51;92.12;101138.63;10591640;28;20437;-76
2021/11/25 18:56:38;;;;;;;17.02;2.47;;;;;;;6.67;93.33;101135.13;10590701;28;20059;-78
2021/11/25 19:01:38;;;;;;;11.75;3.72;;;;;;;6.65;92.80;101139.81;10589658;28;20120;-78
2021/11/25 19:06:39;;;;;;;8.25;3.08;;;;;;;6.57;93.08;101126.31;10571639;28;20024;-77
2021/11/25 19:11:40;;;;;;;2.10;1.73;;;;;;;6.45;92.06;101125.00;10591243;28;20028;-78
2021/11/25 19:16:40;;;;;;;4.25;2.70;;;;;;;6.19;90.10;101120.56;10590798;28;20089;-78
2021/11/25 19:21:41;;;;;;;2.92;2.63;;;;;;;5.93;89.76;101112.53;10589830;28;20032;-78
2021/11/25 19:26:41;;;;;;;8.57;3.45;;;;;;;5.74;90.06;101105.56;10589069;28;20071;-79
2021/11/25 19:31:43;;;;;;;7.78;2.75;;;;;;;5.58;89.74;101095.59;10588887;28;20064;-78
2021/11/25 19:36:43;;;;;;;15.20;3.72;;;;;;;5.49;89.71;101101.06;10589755;28;20118;-78
2021/11/25 19:41:43;;;;;;;11.65;2.70;;;;;;;5.32;89.24;101097.44;10588558;28;20417;-79
2021/11/25 19:46:45;;;;;;;3.35;2.58;;;;;;;5.16;89.03;101100.84;10590698;28;20039;-76
2021/11/25 19:51:46;;;;;;;16.80;4.40;;;;;;;5.07;89.72;101085.69;10573366;28;20034;-80
2021/11/25 19:56:47;;;;;;;12.75;3.85;;;;;;;4.98;90.04;101095.53;10588560;28;20050;-78
2021/11/25 20:01:47;;;;;;;11.23;4.90;;;;;;;5.03;90.41;101089.69;10588441;28;20387;-81
2021/11/25 20:06:48;;;;;;;11.02;6.07;;;;;;;5.11;90.73;101095.97;10589520;28;20036;-80
2021/11/25 20:11:50;;;;;;;10.65;5.50;;;;;;;5.31;91.50;101080.47;10572586;28;20028;-82
2021/11/25 20:16:50;;;;;;;9.85;3.75;;;;;;;5.62;93.01;101073.78;10572611;28;20027;-81
2021/11/25 20:21:51;;;;;;;9.65;5.80;;;;;;;5.80;93.72;101056.53;10587886;28;20058;-81
2021/11/25 20:26:51;;;;;;;16.52;4.43;;;;;;;6.05;94.30;101068.22;10568980;28;20047;-80
2021/11/25 20:31:52;;;;;;;11.43;3.10;;;;;;;6.27;94.70;101063.25;10587496;28;20083;-78
2021/11/25 20:36:52;;;;;;;10.77;4.53;;;;;;;6.46;94.88;101056.72;10587055;28;20036;-80
2021/11/25 20:41:52;;;;;;;6.40;3.63;;;;;;;6.33;93.29;101048.31;10585848;28;20363;-79
2021/11/25 20:46:54;;;;;;;6.90;2.75;;;;;;;6.13;92.30;101054.00;10568070;28;20043;-79
2021/11/25 20:51:55;;;;;;;8.10;3.03;;;;;;;6.19;93.83;101055.16;10586205;28;20036;-79
2021/11/25 20:56:56;;;;;;;4.00;2.05;;;;;;;6.24;94.66;101042.06;10587126;28;20027;-79
2021/11/25 21:01:56;;;;;;;2.72;1.63;;;;;;;6.25;94.37;101041.03;10567503;28;20040;-79
2021/11/25 21:06:56;;;;;;;3.75;1.55;;;;;;;6.16;93.77;101031.28;10586192;28;20036;-79
2021/11/25 21:11:57;;;;;;;2.40;1.50;;;;;;;6.04;93.40;101025.41;10587450;28;20059;-79
2021/11/25 21:16:57;;;;;;;1.73;1.63;;;;;;;5.88;92.35;101012.72;10587135;28;20051;-80
2021/11/25 21:21:58;;;;;;;4.45;2.42;;;;;;;5.67;91.71;101012.31;10569733;28;20114;-79
2021/11/25 21:26:59;;;;;;;9.77;2.75;;;;;;;5.39;90.77;100995.59;10550798;28;20031;-78
2021/11/25 21:32:00;;;;;;;9.23;1.55;;;;;;;5.18;89.81;100993.31;10586719;28;20055;-79
2021/11/25 21:37:03;;;;;;;4.47;1.48;;;;;;;5.25;92.15;100997.03;10586462;28;20047;-79
2021/11/25 21:42:05;;;;;;;3.60;1.98;;;;;;;5.45;93.81;100998.47;10567602;28;20038;-79
2021/11/25 21:47:05;;;;;;;4.10;2.30;;;;;;;5.58;94.62;100977.38;10550432;28;20024;-78
2021/11/25 21:52:05;;;;;;;12.25;4.20;;;;;;;5.55;94.18;100966.09;10566318;28;20490;-78
2021/11/25 21:57:06;;;;;;;4.50;2.13;;;;;;;5.65;94.83;100955.22;10586455;28;20031;-78
2021/11/25 22:02:07;;;;;;;5.97;2.42;;;;;;;5.71;94.54;100960.81;10585172;28;20119;-78
2021/11/25 22:07:07;;;;;;;3.60;2.10;;;;;;;5.68;93.45;100958.44;10565951;28;20032;-77
2021/11/25 22:12:07;;;;;;;2.97;2.10;;;;;;;5.70;93.43;100952.88;10564998;28;20054;-77
2021/11/25 22:17:08;;;;;;;7.93;3.10;;;;;;;5.55;92.38;100950.84;10566200;28;20123;-78
2021/11/25 22:27:28;;;;;;;1.92;1.83;;;;;;;5.20;91.29;100945.66;10582681;28;20036;-77
2021/11/25 22:32:28;;;;;;;4.10;1.80;;;;;;;5.27;93.05;100936.81;10564942;28;20056;-78
2021/11/25 22:37:29;;;;;;;16.40;3.25;;;;;;;5.35;93.72;100934.16;10583243;28;20051;-78
2021/11/25 22:42:29;;;;;;;4.15;2.50;;;;;;;5.40;94.05;100925.63;10563038;28;20059;-77
2021/11/25 22:47:29;;;;;;;7.38;2.50;;;;;;;5.42;93.47;100910.16;10563755;28;20031;-78
2021/11/25 22:52:30;;;;;;;6.10;2.78;;;;;;;5.42;93.42;100906.66;10546883;28;20599;-78
2021/11/25 22:57:30;;;;;;;7.70;3.50;;;;;;;5.42;93.87;100899.41;10582646;28;20043;-78
2021/11/25 23:02:31;;;;;;;5.03;2.08;;;;;;;5.46;94.18;100891.91;10580989;28;20051;-77
2021/11/25 23:07:31;;;;;;;6.55;2.80;;;;;;;5.49;93.86;100892.41;10583185;28;20035;-77
2021/11/25 23:12:32;;;;;;;4.93;2.75;;;;;;;5.59;94.21;100889.56;10582788;28;20096;-77
2021/11/25 23:17:32;;;;;;;12.40;3.63;;;;;;;5.70;95.15;100883.03;10564806;28;20117;-78
2021/11/25 23:22:32;;;;;;;11.98;3.92;;;;;;;5.81;95.35;100880.88;10581435;28;20043;-78